Time;durP1;ratioP1;P1;durP2;ratioP2;P2;SDS_P1;SDS_P2;PMS_P1;PMS_P2;Temp;Humidity;BMP_temperature;BMP_pressure;BME280_temperature;BME280_humidity;BME280_pressure;Samples;Min_cycle;Max_cycle;Signal;HPM_P1;HPM_P2
2022/07/05 00:01:54;;;;;;;;;3.00;3.00;;;;;22.03;55.63;102004.41;5053022;28;45306;-67
2022/07/05 00:04:19;;;;;;;;;5.67;3.67;;;;;21.65;56.95;102004.47;5054068;28;45420;-67
2022/07/05 00:09:29;;;;;;;;;4.67;3.00;;;;;21.62;56.65;102002.13;5054628;28;45416;-67
2022/07/05 00:11:55;;;;;;;;;4.33;3.33;;;;;21.52;57.07;102009.81;5069176;27;46933;-67
2022/07/05 00:14:20;;;;;;;;;3.33;2.00;;;;;21.19;57.66;102014.81;5048708;28;45428;-68
2022/07/05 00:16:45;;;;;;;;;2.67;2.67;;;;;21.10;58.09;102002.09;5054463;28;47130;-67
2022/07/05 00:19:11;;;;;;;;;4.00;2.00;;;;;20.91;59.17;102010.91;5055341;28;45235;-67
2022/07/05 00:21:36;;;;;;;;;7.00;3.33;;;;;20.78;59.10;102011.53;5056182;28;45376;-67
2022/07/05 00:24:01;;;;;;;;;3.00;3.00;;;;;20.89;58.65;102005.53;5045896;28;45145;-67
2022/07/05 00:26:28;;;;;;;;;2.00;2.00;;;;;20.85;59.65;102004.22;5057785;28;46715;-67
2022/07/05 00:28:53;;;;;;;;;2.33;2.00;;;;;20.84;59.38;102007.16;5058880;28;45233;-67
2022/07/05 00:31:18;;;;;;;;;2.33;2.00;;;;;20.90;59.31;102007.28;5058845;28;45435;-67
2022/07/05 00:33:44;;;;;;;;;3.00;3.00;;;;;20.83;59.56;102014.59;5061383;28;45285;-67
2022/07/05 00:36:09;;;;;;;;;3.00;3.00;;;;;20.79;59.30;101993.91;5051165;28;46443;-67
2022/07/05 00:38:34;;;;;;;;;4.67;4.00;;;;;20.89;58.90;102011.06;5062304;28;45189;-67
2022/07/05 00:41:00;;;;;;;;;3.67;2.00;;;;;20.92;59.12;102010.72;5060266;28;45337;-67
2022/07/05 00:43:25;;;;;;;;;2.00;2.00;;;;;21.04;58.42;102008.34;5061750;28;45369;-67
2022/07/05 00:45:50;;;;;;;;;2.33;2.00;;;;;21.05;58.57;102020.28;5057735;28;45515;-67
2022/07/05 00:48:16;;;;;;;;;3.00;3.00;;;;;21.10;58.23;102020.59;5060481;28;45446;-67
2022/07/05 00:50:42;;;;;;;;;3.00;2.33;;;;;20.99;58.75;102017.22;5059710;28;45419;-67
2022/07/05 00:53:08;;;;;;;;;2.67;2.67;;;;;20.84;58.91;102007.16;5065411;28;45365;-67
2022/07/05 00:55:34;;;;;;;;;1.33;1.33;;;;;20.85;58.26;102006.97;5063180;28;45468;-67
2022/07/05 00:57:59;;;;;;;;;2.33;1.00;;;;;20.82;59.18;102018.38;5065432;28;45347;-67
2022/07/05 01:00:25;;;;;;;;;4.33;3.33;;;;;20.85;59.06;102023.56;5062742;28;45408;-67
2022/07/05 01:02:50;;;;;;;;;3.67;2.00;;;;;20.87;58.86;102018.72;5065642;28;45638;-67
2022/07/05 01:05:17;;;;;;;;;5.00;3.67;;;;;20.76;59.46;102018.25;5061353;28;45327;-67
2022/07/05 01:07:43;;;;;;;;;4.33;2.00;;;;;20.68;59.91;102019.19;5062917;28;45480;-67
2022/07/05 01:10:08;;;;;;;;;4.00;2.33;;;;;20.67;60.36;102017.50;5061606;28;45242;-67
2022/07/05 01:12:34;;;;;;;;;3.33;3.00;;;;;20.76;59.83;102005.31;5063228;28;45684;-67
2022/07/05 01:15:00;;;;;;;;;3.00;1.67;;;;;20.60;60.07;101997.19;5061137;28;47034;-67
2022/07/05 01:17:25;;;;;;;;;2.67;2.67;;;;;20.76;58.93;102012.75;5061561;28;45607;-67
2022/07/05 01:19:51;;;;;;;;;2.00;1.67;;;;;20.73;59.59;102016.75;5061947;28;45348;-67
2022/07/05 01:22:19;;;;;;;;;5.00;2.00;;;;;20.65;60.04;102008.53;5061326;28;45415;-66
2022/07/05 01:24:46;;;;;;;;;3.67;2.00;;;;;20.63;60.23;102016.13;5062966;28;46170;-66
2022/07/05 01:27:12;;;;;;;;;5.67;3.67;;;;;20.67;59.33;102017.50;5076419;27;45333;-67
2022/07/05 01:29:38;;;;;;;;;8.00;5.00;;;;;20.70;60.13;101999.69;5063245;28;45255;-66
2022/07/05 01:32:04;;;;;;;;;4.00;1.67;;;;;20.53;60.85;102007.22;5060985;28;45160;-66
2022/07/05 01:34:29;;;;;;;;;2.67;2.67;;;;;20.39;61.19;102008.00;5064218;28;46123;-66
2022/07/05 01:36:55;;;;;;;;;5.33;4.00;;;;;20.05;62.68;102000.91;5060432;28;45358;-67
2022/07/05 01:39:20;;;;;;;;;2.33;2.33;;;;;20.02;62.53;101998.50;5065505;28;45330;-68
2022/07/05 01:41:48;;;;;;;;;2.67;2.67;;;;;20.05;62.60;102000.91;5062178;28;45297;-67
2022/07/05 01:44:13;;;;;;;;;3.00;3.00;;;;;19.91;62.88;101987.88;5063785;28;46710;-67
2022/07/05 01:46:40;;;;;;;;;3.33;2.00;;;;;19.95;63.06;102003.03;5060189;28;45643;-67
2022/07/05 01:49:11;;;;;;;;;1.00;1.00;;;;;19.93;63.15;102002.38;5065383;28;45444;-68
2022/07/05 01:51:54;;;;;;;;;3.00;3.00;;;;;19.81;63.19;102007.41;5077678;27;45838;-67
2022/07/05 01:54:20;;;;;;;;;5.00;2.00;;;;;19.80;63.89;102013.09;5065115;28;45403;-68
2022/07/05 01:56:45;;;;;;;;;3.33;2.67;;;;;19.75;63.31;102007.25;5054686;28;45415;-67
2022/07/05 01:59:11;;;;;;;;;4.00;3.00;;;;;19.75;64.01;102004.50;5064991;28;45414;-67
2022/07/05 02:01:38;;;;;;;;;1.67;1.67;;;;;19.80;62.82;101999.28;5058096;28;45382;-67
2022/07/05 02:04:05;;;;;;;;;5.00;3.00;;;;;19.73;64.06;102001.91;5062790;28;47905;-67
2022/07/05 02:06:32;;;;;;;;;2.67;2.67;;;;;19.60;65.82;102009.03;5058730;28;45413;-67
2022/07/05 02:08:59;;;;;;;;;1.67;1.67;;;;;19.63;64.87;102000.41;5056212;28;45239;-68
2022/07/05 02:11:24;;;;;;;;;4.00;4.00;;;;;19.62;65.74;101994.03;5056952;28;45531;-67
2022/07/05 02:13:49;;;;;;;;;3.00;3.00;;;;;19.50;66.40;101986.31;5064190;28;46304;-67
2022/07/05 02:16:15;;;;;;;;;3.00;3.00;;;;;19.50;66.66;101998.22;5056078;28;45169;-67
2022/07/05 02:18:40;;;;;;;;;5.00;4.00;;;;;19.44;66.89;101991.44;5065087;28;45155;-67
2022/07/05 02:21:05;;;;;;;;;5.00;3.67;;;;;19.40;67.83;101998.38;5059246;28;45440;-68
2022/07/05 02:23:31;;;;;;;;;3.00;2.00;;;;;19.42;67.12;101990.78;5080119;28;47209;-67
2022/07/05 02:25:56;;;;;;;;;2.00;1.33;;;;;19.24;68.73;101984.63;5056490;28;45543;-67
2022/07/05 02:28:22;;;;;;;;;4.00;3.33;;;;;19.13;68.91;101987.75;5064338;28;45483;-67
2022/07/05 02:30:48;;;;;;;;;3.00;3.00;;;;;19.56;67.16;101991.13;5062661;28;45349;-67
2022/07/05 02:33:13;;;;;;;;;3.00;3.00;;;;;19.57;67.29;101988.19;5063316;28;47195;-67
2022/07/05 02:35:38;;;;;;;;;3.33;3.00;;;;;19.55;67.08;101992.16;5062157;28;45392;-67
2022/07/05 02:38:04;;;;;;;;;4.33;3.00;;;;;19.57;67.27;101995.59;5064626;28;45403;-68
2022/07/05 02:40:29;;;;;;;;;3.67;2.00;;;;;19.56;67.32;101993.88;5062445;28;45322;-68
2022/07/05 02:42:55;;;;;;;;;2.00;2.00;;;;;19.56;67.44;101996.66;5063167;28;45686;-67
2022/07/05 02:45:20;;;;;;;;;6.00;4.67;;;;;19.48;68.06;101986.50;5061312;28;45424;-67
2022/07/05 02:47:45;;;;;;;;;3.00;2.00;;;;;19.40;69.61;101987.34;5063404;28;45243;-67
2022/07/05 02:50:12;;;;;;;;;8.00;6.00;;;;;19.31;70.22;101990.28;5062498;28;45431;-67
2022/07/05 02:52:37;;;;;;;;;5.00;4.00;;;;;19.25;70.97;101991.84;5063497;28;46158;-67
2022/07/05 02:55:03;;;;;;;;;4.00;3.00;;;;;19.11;71.71;101984.31;5060650;28;46234;-67
2022/07/05 02:57:29;;;;;;;;;7.67;5.00;;;;;19.23;70.58;101987.53;5057105;28;45365;-67
2022/07/05 02:59:55;;;;;;;;;7.00;4.00;;;;;19.22;70.70;101992.19;5062054;28;45226;-68
2022/07/05 03:02:21;;;;;;;;;7.00;4.00;;;;;19.26;70.07;101985.31;5056476;28;46404;-67
2022/07/05 03:04:47;;;;;;;;;7.00;4.00;;;;;19.43;67.75;101986.16;5062292;28;45350;-67
2022/07/05 03:07:13;;;;;;;;;5.00;4.33;;;;;19.49;68.51;101984.59;5057496;28;45504;-67
2022/07/05 03:09:38;;;;;;;;;5.00;3.00;;;;;19.37;68.74;101984.94;5061458;28;45510;-68
2022/07/05 03:12:04;;;;;;;;;8.67;5.00;;;;;19.31;70.94;101995.78;5059114;28;48166;-68
2022/07/05 03:14:29;;;;;;;;;6.67;4.33;;;;;19.14;71.42;101994.94;5062444;28;45325;-66
2022/07/05 03:16:55;;;;;;;;;7.00;6.33;;;;;18.99;73.20;101996.72;5061268;28;45428;-68
2022/07/05 03:19:20;;;;;;;;;8.67;6.00;;;;;19.03;72.51;101992.56;5064443;28;45391;-68
2022/07/05 03:21:45;;;;;;;;;7.67;5.00;;;;;19.14;72.13;101994.94;5059350;28;45477;-68
2022/07/05 03:24:10;;;;;;;;;4.00;4.00;;;;;19.17;71.11;102000.13;5063598;28;45172;-68
2022/07/05 03:26:36;;;;;;;;;5.00;5.00;;;;;19.15;71.96;101987.56;5058249;28;45479;-68
2022/07/05 03:29:02;;;;;;;;;6.33;5.33;;;;;19.10;72.21;101992.72;5063747;28;45416;-68
2022/07/05 03:31:27;;;;;;;;;6.00;3.67;;;;;19.10;72.31;101996.34;5055988;28;45456;-68
2022/07/05 03:33:52;;;;;;;;;5.33;5.33;;;;;19.04;72.60;101999.81;5063256;28;45274;-68
2022/07/05 03:36:18;;;;;;;;;3.00;3.00;;;;;18.98;73.56;102004.13;5055408;28;45383;-67
2022/07/05 03:38:43;;;;;;;;;5.33;4.00;;;;;19.02;72.38;101999.97;5063741;28;45400;-68
2022/07/05 03:41:08;;;;;;;;;4.33;4.00;;;;;19.09;72.65;102002.88;5070514;28;46893;-68
2022/07/05 03:43:34;;;;;;;;;8.00;6.33;;;;;19.14;71.80;102000.47;5059833;28;45172;-66
2022/07/05 03:45:59;;;;;;;;;5.67;4.33;;;;;19.09;72.24;102008.41;5059092;28;45604;-68
2022/07/05 03:48:24;;;;;;;;;6.67;5.00;;;;;19.14;72.40;102016.16;5062204;28;45636;-65
2022/07/05 03:50:50;;;;;;;;;7.33;6.33;;;;;19.00;73.30;102014.94;5060799;28;45475;-66
2022/07/05 03:53:15;;;;;;;;;10.00;5.33;;;;;18.91;73.09;102021.50;5062913;28;45403;-68
2022/07/05 03:55:40;;;;;;;;;5.00;5.00;;;;;18.91;74.23;102016.00;5056429;28;45461;-67
2022/07/05 03:58:06;;;;;;;;;7.00;6.33;;;;;18.93;74.00;102033.19;5056084;28;45348;-68
2022/07/05 04:00:32;;;;;;;;;7.67;5.33;;;;;18.92;74.73;102021.31;5060483;28;46075;-68
2022/07/05 04:02:57;;;;;;;;;11.67;7.33;;;;;19.00;73.64;102021.31;5062942;28;45357;-67
2022/07/05 04:05:22;;;;;;;;;6.67;6.33;;;;;19.09;73.08;102026.81;5076677;27;45615;-69
2022/07/05 04:07:53;;;;;;;;;8.00;8.00;;;;;19.09;73.97;102035.09;5062998;28;45555;-68
2022/07/05 04:10:19;;;;;;;;;9.00;8.67;;;;;19.03;74.22;102031.13;5052415;28;48389;-65
2022/07/05 04:12:45;;;;;;;;;7.00;7.00;;;;;19.03;74.69;102031.13;5057935;28;45429;-68
2022/07/05 04:15:12;;;;;;;;;12.67;10.33;;;;;19.08;74.86;102034.22;5060663;28;45504;-68
2022/07/05 04:17:49;;;;;;;;;9.33;9.00;;;;;18.97;75.44;102026.31;5059202;28;45448;-67
2022/07/05 04:20:15;;;;;;;;;6.67;4.67;;;;;19.01;75.12;102030.44;5057955;28;46301;-67
2022/07/05 04:22:40;;;;;;;;;13.00;11.33;;;;;18.95;75.50;102033.88;5060084;28;45266;-68
2022/07/05 04:25:18;;;;;;;;;5.00;5.00;;;;;19.01;75.81;102044.22;5057499;28;45354;-68
2022/07/05 04:27:51;;;;;;;;;14.00;9.00;;;;;19.09;75.44;102051.63;5061045;28;45252;-68
2022/07/05 04:30:19;;;;;;;;;8.00;8.00;;;;;19.05;75.77;102046.47;5057729;28;45433;-69
2022/07/05 04:32:45;;;;;;;;;9.00;8.67;;;;;18.94;77.41;102040.41;5060457;28;45410;-68
2022/07/05 04:35:10;;;;;;;;;12.00;8.33;;;;;19.04;76.35;102053.00;5057394;28;45347;-66
2022/07/05 04:37:36;;;;;;;;;10.00;7.00;;;;;19.13;75.73;102040.09;5062320;28;45440;-67
2022/07/05 04:40:07;;;;;;;;;9.33;8.67;;;;;19.21;75.61;102051.13;5057670;28;46550;-67
2022/07/05 04:42:33;;;;;;;;;6.33;6.33;;;;;19.18;75.23;102047.81;5062031;28;45455;-67
2022/07/05 04:44:59;;;;;;;;;7.33;6.00;;;;;19.34;74.41;102045.94;5059332;28;45851;-68
2022/07/05 04:47:27;;;;;;;;;7.33;6.00;;;;;19.40;73.66;102039.72;5059926;28;45271;-67
2022/07/05 04:49:54;;;;;;;;;9.00;8.00;;;;;19.52;73.16;102044.88;5057982;28;46884;-67
2022/07/05 04:52:20;;;;;;;;;5.33;5.33;;;;;19.57;73.07;102042.47;5059479;28;45314;-68
2022/07/05 04:54:46;;;;;;;;;7.00;7.00;;;;;19.67;72.72;102040.38;5059194;28;45255;-68
2022/07/05 04:57:11;;;;;;;;;12.33;7.33;;;;;19.72;72.87;102043.47;5057218;28;45344;-68
2022/07/05 04:59:37;;;;;;;;;7.00;6.00;;;;;19.64;73.73;102051.75;5060200;28;45576;-68
2022/07/05 05:02:02;;;;;;;;;8.00;7.33;;;;;19.48;74.80;102052.66;5054539;28;45387;-68
2022/07/05 05:04:28;;;;;;;;;9.33;6.67;;;;;19.48;74.92;102057.31;5059953;28;45346;-67
2022/07/05 05:06:53;;;;;;;;;8.33;8.00;;;;;19.62;73.93;102048.31;5053118;28;45332;-67
2022/07/05 05:09:18;;;;;;;;;14.33;10.67;;;;;19.55;74.95;102061.06;5060738;28;46715;-68
2022/07/05 05:11:43;;;;;;;;;12.33;9.00;;;;;19.69;73.94;102061.22;5069521;28;45702;-67
2022/07/05 05:14:09;;;;;;;;;7.00;6.67;;;;;19.84;72.91;102055.84;5060780;28;45264;-68
2022/07/05 05:16:35;;;;;;;;;13.00;11.75;;;;;19.83;73.70;102059.63;5054678;28;45370;-68
2022/07/05 05:19:00;;;;;;;;;15.00;10.33;;;;;19.83;74.00;102059.63;5060377;28;45132;-68
2022/07/05 05:21:26;;;;;;;;;9.00;7.33;;;;;19.88;73.27;102054.44;5055939;28;45422;-67
2022/07/05 05:23:51;;;;;;;;;8.33;8.00;;;;;20.15;72.41;102056.75;5062030;28;45447;-68
2022/07/05 05:26:16;;;;;;;;;11.00;8.00;;;;;20.18;72.61;102064.66;5058006;28;45298;-68
2022/07/05 05:28:42;;;;;;;;;10.67;10.67;;;;;20.14;73.07;102066.06;5060611;28;46494;-68
2022/07/05 05:31:07;;;;;;;;;9.67;9.67;;;;;20.12;73.10;102065.38;5056046;28;45481;-70
2022/07/05 05:33:33;;;;;;;;;14.33;12.33;;;;;20.05;72.57;102063.50;5060418;28;45833;-68
2022/07/05 05:35:58;;;;;;;;;10.67;9.33;;;;;19.89;73.74;102063.56;5051890;28;45462;-69
2022/07/05 05:38:23;;;;;;;;;10.67;9.67;;;;;20.04;72.82;102064.53;5062680;28;45441;-68
2022/07/05 05:40:49;;;;;;;;;12.00;10.00;;;;;21.01;69.46;102074.19;5061303;28;45413;-67
2022/07/05 05:43:14;;;;;;;;;18.00;11.33;;;;;22.14;62.94;102075.84;5062133;28;45223;-67
2022/07/05 05:45:40;;;;;;;;;9.67;8.00;;;;;22.48;61.35;102070.56;5060870;28;45570;-67
2022/07/05 05:48:05;;;;;;;;;10.67;10.67;;;;;22.73;60.77;102072.97;5063983;28;45542;-68
2022/07/05 05:50:33;;;;;;;;;9.67;9.33;;;;;22.14;61.13;102084.16;5062304;28;45244;-70
2022/07/05 05:52:59;;;;;;;;;10.00;9.00;;;;;21.67;63.78;102077.06;5073294;28;45385;-70
2022/07/05 05:55:26;;;;;;;;;12.33;9.67;;;;;21.46;64.46;102087.16;5061583;28;45552;-69
2022/07/05 05:57:52;;;;;;;;;12.67;12.33;;;;;21.49;65.24;102090.38;5055643;28;46319;-68
2022/07/05 06:00:19;;;;;;;;;10.33;10.00;;;;;21.66;64.18;102089.19;5061527;28;45441;-68
2022/07/05 06:02:46;;;;;;;;;11.00;10.67;;;;;21.51;64.87;102093.81;5057078;28;45296;-68
2022/07/05 06:05:12;;;;;;;;;15.33;12.00;;;;;21.17;66.14;102097.09;5060887;28;45546;-68
2022/07/05 06:07:49;;;;;;;;;10.00;9.00;;;;;21.34;65.41;102095.00;5057887;28;45380;-68
2022/07/05 06:10:20;;;;;;;;;11.33;10.33;;;;;22.14;62.32;102089.69;5060272;28;45468;-68
2022/07/05 06:12:46;;;;;;;;;9.67;9.67;;;;;23.52;57.47;102084.91;5063045;28;45520;-68
2022/07/05 06:15:11;;;;;;;;;7.00;7.00;;;;;24.52;53.10;102087.22;5060066;28;45485;-68
2022/07/05 06:17:37;;;;;;;;;14.33;12.67;;;;;23.35;56.49;102086.22;5062751;28;46546;-68
2022/07/05 06:20:11;;;;;;;;;10.33;8.00;;;;;23.20;56.75;102091.84;5059318;28;45766;-68
2022/07/05 06:22:37;;;;;;;;;7.00;7.00;;;;;22.87;58.23;102085.94;5059653;28;45141;-68
2022/07/05 06:25:03;;;;;;;;;8.00;8.00;;;;;22.62;59.80;102088.22;5061137;28;45161;-68
2022/07/05 06:27:29;;;;;;;;;6.67;5.00;;;;;22.43;60.14;102086.91;5059650;28;46758;-69
2022/07/05 06:29:54;;;;;;;;;8.33;8.33;;;;;22.48;59.36;102097.41;5060429;28;45301;-68
2022/07/05 06:32:20;;;;;;;;;13.00;10.00;;;;;22.32;61.35;102092.94;5053445;28;45379;-68
2022/07/05 06:34:45;;;;;;;;;8.67;7.00;;;;;22.50;59.78;102085.06;5061929;28;45406;-68
2022/07/05 06:37:11;;;;;;;;;10.00;8.00;;;;;22.50;60.40;102093.38;5060017;28;45386;-70
2022/07/05 06:39:36;;;;;;;;;10.33;7.67;;;;;22.51;60.28;102092.31;5060954;28;45441;-69
2022/07/05 06:42:02;;;;;;;;;11.33;9.67;;;;;22.60;59.46;102089.44;5059345;28;45507;-69
2022/07/05 06:44:27;;;;;;;;;11.33;10.33;;;;;22.48;60.87;102092.72;5062349;28;45475;-69
2022/07/05 06:46:53;;;;;;;;;16.33;12.00;;;;;22.23;62.21;102098.78;5059906;28;46400;-69
2022/07/05 06:49:18;;;;;;;;;9.33;9.33;;;;;22.45;61.60;102097.78;5062179;28;45415;-68
2022/07/05 06:51:44;;;;;;;;;13.67;10.67;;;;;22.43;60.90;102089.66;5056891;28;45512;-68
2022/07/05 06:54:09;;;;;;;;;14.00;12.00;;;;;22.75;59.83;102102.25;5062480;28;45492;-68
2022/07/05 06:56:34;;;;;;;;;15.67;13.33;;;;;22.58;60.50;102099.84;5052359;28;47799;-68
2022/07/05 06:59:00;;;;;;;;;13.00;12.00;;;;;22.75;59.78;102109.69;5062922;28;45410;-69
2022/07/05 07:01:25;;;;;;;;;16.00;13.00;;;;;22.59;60.40;102102.44;5053387;28;47529;-68
2022/07/05 07:03:50;;;;;;;;;12.67;11.00;;;;;22.70;60.07;102099.19;5063019;28;45393;-69
2022/07/05 07:06:16;;;;;;;;;12.33;10.00;;;;;22.79;59.68;102105.50;5054763;28;46281;-68
2022/07/05 07:11:25;;;;;;;;;8.67;8.67;;;;;22.86;59.96;102096.19;5055669;28;45434;-68
2022/07/05 07:13:50;;;;;;;;;10.67;8.00;;;;;22.93;59.34;102103.72;5062587;28;45394;-70
2022/07/05 07:16:15;;;;;;;;;14.00;11.33;;;;;22.97;59.10;102099.50;5059309;28;52013;-67
2022/07/05 07:18:41;;;;;;;;;9.33;7.33;;;;;23.02;58.41;102089.50;5061462;28;45134;-69
2022/07/05 07:21:06;;;;;;;;;12.33;11.33;;;;;23.51;57.43;102105.38;5059631;28;45476;-69
2022/07/05 07:23:31;;;;;;;;;11.67;8.67;;;;;23.66;56.87;102100.59;5062551;28;45219;-68
2022/07/05 07:25:57;;;;;;;;;9.33;9.00;;;;;23.67;56.80;102105.06;5059363;28;46693;-68
2022/07/05 07:28:23;;;;;;;;;9.33;9.33;;;;;23.75;56.05;102098.50;5061937;28;45257;-68
2022/07/05 07:30:49;;;;;;;;;10.33;8.00;;;;;23.59;56.89;102099.69;5059902;28;45457;-69
2022/07/05 07:33:14;;;;;;;;;11.00;11.00;;;;;23.45;57.31;102097.84;5062040;28;45367;-69
2022/07/05 07:35:39;;;;;;;;;11.33;9.00;;;;;23.65;56.71;102108.06;5057330;28;47760;-69
2022/07/05 07:38:05;;;;;;;;;9.33;9.00;;;;;23.65;57.09;102109.97;5061570;28;45311;-69
2022/07/05 07:40:30;;;;;;;;;9.00;9.00;;;;;23.76;55.81;102114.97;5058845;28;45350;-69
2022/07/05 07:42:55;;;;;;;;;13.00;10.33;;;;;23.83;55.25;102107.53;5060725;28;45663;-68
2022/07/05 07:45:21;;;;;;;;;11.67;8.33;;;;;23.77;55.88;102113.91;5058881;28;45493;-69
2022/07/05 07:47:46;;;;;;;;;8.00;6.67;;;;;23.67;55.89;102117.03;5061420;28;45396;-70
2022/07/05 07:50:11;;;;;;;;;15.00;13.00;;;;;23.92;55.57;102120.22;5059809;28;45339;-69
2022/07/05 07:52:38;;;;;;;;;10.33;8.67;;;;;23.88;55.77;102116.13;5062063;28;45612;-68
2022/07/05 07:55:04;;;;;;;;;7.33;6.67;;;;;24.05;54.69;102120.28;5060148;28;45691;-68
2022/07/05 07:57:30;;;;;;;;;8.33;8.00;;;;;23.59;55.26;102114.44;5061649;28;45384;-69
2022/07/05 07:59:55;;;;;;;;;10.00;8.67;;;;;23.69;54.82;102122.38;5059909;28;45927;-68
2022/07/05 08:02:22;;;;;;;;;13.00;9.00;;;;;23.97;55.27;102114.91;5059907;28;46045;-68
2022/07/05 08:04:49;;;;;;;;;17.25;14.00;;;;;24.20;54.08;102117.41;5060050;28;45352;-68
2022/07/05 08:07:14;;;;;;;;;6.67;6.67;;;;;24.20;54.05;102120.19;5057080;28;45349;-69
2022/07/05 08:09:39;;;;;;;;;11.67;9.33;;;;;24.53;54.12;102122.28;5060947;28;45492;-70
2022/07/05 08:12:06;;;;;;;;;9.33;8.00;;;;;23.96;54.92;102127.06;5060702;28;45365;-68
2022/07/05 08:14:32;;;;;;;;;6.00;6.00;;;;;24.17;54.64;102116.94;5060641;28;45734;-68
2022/07/05 08:16:58;;;;;;;;;11.00;10.33;;;;;24.31;54.44;102118.78;5055699;28;45350;-67
2022/07/05 08:22:08;;;;;;;;;9.00;8.00;;;;;24.41;52.86;102106.19;5056465;28;45408;-69
2022/07/05 08:24:34;;;;;;;;;7.33;6.67;;;;;24.74;52.31;102114.69;5060476;28;45401;-70
2022/07/05 08:26:59;;;;;;;;;10.33;8.00;;;;;24.80;52.20;102107.44;5055230;28;45366;-67
2022/07/05 08:29:25;;;;;;;;;9.00;8.67;;;;;24.81;51.96;102104.44;5061109;28;45342;-69
2022/07/05 08:31:51;;;;;;;;;10.00;8.00;;;;;24.51;52.62;102103.06;5059528;28;45359;-68
2022/07/05 08:34:20;;;;;;;;;11.67;9.67;;;;;24.61;52.47;102097.09;5077332;28;46986;-69
2022/07/05 08:36:46;;;;;;;;;11.33;10.00;;;;;24.76;53.04;102100.59;5059093;28;45450;-68
2022/07/05 08:39:13;;;;;;;;;10.67;10.67;;;;;24.58;52.48;102103.94;5059746;28;45473;-69
2022/07/05 08:41:41;;;;;;;;;12.67;9.33;;;;;24.73;52.12;102096.28;5059227;28;45359;-68
2022/07/05 08:44:08;;;;;;;;;13.00;9.67;;;;;25.15;51.30;102091.47;5059633;28;45324;-68
2022/07/05 08:46:38;;;;;;;;;11.33;9.33;;;;;25.30;50.31;102100.50;5058242;28;45415;-69
2022/07/05 08:49:04;;;;;;;;;8.67;8.33;;;;;25.03;51.36;102098.75;5060645;28;45334;-68
2022/07/05 08:51:33;;;;;;;;;11.67;10.33;;;;;25.04;51.05;102098.53;5059822;28;45496;-68
2022/07/05 08:53:59;;;;;;;;;8.33;7.33;;;;;25.09;50.88;102090.41;5060228;28;46743;-68
2022/07/05 08:56:25;;;;;;;;;8.00;8.00;;;;;25.20;50.19;102100.06;5051289;28;45422;-68
2022/07/05 08:58:50;;;;;;;;;8.67;6.67;;;;;25.47;48.62;102093.44;5059645;28;45244;-69
2022/07/05 09:01:16;;;;;;;;;7.00;7.00;;;;;25.69;48.33;102098.81;5054990;28;45782;-69
2022/07/05 09:03:52;;;;;;;;;8.33;7.00;;;;;25.89;47.02;102092.16;5060248;28;45571;-68
2022/07/05 09:06:27;;;;;;;;;6.00;6.00;;;;;26.09;47.21;102094.88;5057815;28;45317;-68
2022/07/05 09:08:55;;;;;;;;;9.00;5.67;;;;;25.81;46.45;102092.38;5060099;28;45501;-70
2022/07/05 09:11:28;;;;;;;;;11.33;8.00;;;;;25.95;48.19;102090.41;5057662;28;45430;-69
2022/07/05 09:13:53;;;;;;;;;9.67;7.33;;;;;26.08;45.82;102083.97;5064963;28;46791;-69
2022/07/05 09:16:19;;;;;;;;;8.00;7.00;;;;;26.20;47.09;102094.22;5059495;28;45489;-69
2022/07/05 09:18:56;;;;;;;;;7.00;7.00;;;;;26.25;46.01;102088.88;5065345;28;45666;-70
2022/07/05 09:21:26;;;;;;;;;8.00;6.33;;;;;26.02;45.34;102099.59;5057342;28;45347;-70
2022/07/05 09:24:00;;;;;;;;;9.67;6.00;;;;;25.52;46.72;102096.44;5063694;28;46903;-69
2022/07/05 09:26:32;;;;;;;;;7.00;6.00;;;;;25.79;46.81;102097.28;5055060;28;45578;-69
2022/07/05 09:28:58;;;;;;;;;7.00;5.67;;;;;26.25;45.71;102094.44;5063998;28;45231;-68
2022/07/05 09:31:34;;;;;;;;;10.67;7.00;;;;;26.81;45.22;102091.00;5059026;28;45416;-71
2022/07/05 09:34:05;;;;;;;;;7.00;5.33;;;;;26.78;41.38;102091.41;5064257;28;45416;-69
2022/07/05 09:37:01;;;;;;;;;5.00;5.00;;;;;27.00;41.70;102090.03;5059656;28;45390;-67
2022/07/05 09:39:29;;;;;;;;;13.00;7.00;;;;;26.56;41.88;102092.81;5063090;28;45436;-69
2022/07/05 09:42:19;;;;;;;;;6.00;6.00;;;;;26.81;41.95;102085.41;5061684;28;45660;-68
2022/07/05 09:44:46;;;;;;;;;6.00;5.00;;;;;27.10;41.17;102098.75;5052266;28;46128;-70
2022/07/05 09:47:20;;;;;;;;;10.00;9.00;;;;;27.19;40.42;102093.75;5058687;28;45340;-70
2022/07/05 09:49:54;;;;;;;;;5.00;5.00;;;;;27.44;39.20;102091.84;5063293;28;45353;-69
2022/07/05 09:52:33;;;;;;;;;7.00;7.00;;;;;27.28;39.87;102083.16;5058307;28;46838;-69
2022/07/05 09:55:07;;;;;;;;;6.00;6.00;;;;;27.65;38.92;102092.56;5062778;28;46091;-70
2022/07/05 09:57:35;;;;;;;;;4.67;4.67;;;;;27.91;38.62;102095.06;5060531;28;45286;-70
2022/07/05 10:00:03;;;;;;;;;7.00;6.67;;;;;27.53;38.30;102099.97;5063078;28;45696;-68
2022/07/05 10:02:47;;;;;;;;;7.00;4.33;;;;;28.00;38.08;102090.03;5059453;28;45618;-70
2022/07/05 10:05:19;;;;;;;;;5.00;5.00;;;;;28.35;37.73;102087.50;5062263;28;45402;-69
2022/07/05 10:07:59;;;;;;;;;9.67;7.00;;;;;28.82;37.98;102095.09;5057788;28;45405;-69
2022/07/05 10:10:26;;;;;;;;;5.33;5.33;;;;;29.57;35.28;102097.41;5053466;28;45533;-69
2022/07/05 10:12:55;;;;;;;;;6.67;6.67;;;;;29.81;34.31;102094.34;5062781;28;45501;-70
2022/07/05 10:15:22;;;;;;;;;8.00;8.00;;;;;30.15;33.90;102089.03;5061488;28;45317;-69
2022/07/05 10:18:00;;;;;;;;;6.00;6.00;;;;;30.15;33.97;102094.63;5064139;28;45664;-68
2022/07/05 10:20:40;;;;;;;;;5.33;5.33;;;;;30.42;33.61;102086.50;5065279;28;45519;-68
2022/07/05 10:23:08;;;;;;;;;9.00;7.33;;;;;29.83;33.88;102107.28;5068183;28;44788;-68
2022/07/05 10:25:38;;;;;;;;;4.33;4.33;;;;;29.90;34.77;102106.06;5062891;28;45584;-66
2022/07/05 10:28:07;;;;;;;;;6.33;4.67;;;;;30.55;33.58;102094.66;5059628;28;45234;-69
2022/07/05 10:30:34;;;;;;;;;6.00;6.00;;;;;30.70;31.92;102097.78;5065492;28;45485;-68
2022/07/05 10:33:05;;;;;;;;;6.67;6.67;;;;;30.49;33.20;102095.63;5060801;28;45469;-68
2022/07/05 10:35:30;;;;;;;;;5.33;4.67;;;;;30.25;33.13;102100.44;5059566;28;45437;-70
2022/07/05 10:37:58;;;;;;;;;6.00;6.00;;;;;29.94;34.04;102081.25;5063062;28;45373;-71
2022/07/05 10:40:23;;;;;;;;;6.67;5.33;;;;;30.59;33.33;102084.69;5059703;28;45510;-69
2022/07/05 10:42:54;;;;;;;;;7.67;7.00;;;;;31.03;31.81;102085.81;5062870;28;46150;-70
2022/07/05 10:45:25;;;;;;;;;6.00;6.00;;;;;31.10;32.24;102085.69;5057644;28;48128;-69
2022/07/05 10:48:09;;;;;;;;;10.67;8.00;;;;;30.77;32.66;102078.84;5060864;28;46003;-70
2022/07/05 10:50:54;;;;;;;;;8.67;7.67;;;;;31.28;32.28;102079.84;5057882;28;45195;-70
2022/07/05 10:53:25;;;;;;;;;10.33;10.33;;;;;31.22;32.15;102080.84;5057114;28;45408;-70
2022/07/05 10:56:17;;;;;;;;;6.33;6.33;;;;;31.34;31.29;102071.25;5058611;28;45512;-69
2022/07/05 10:58:43;;;;;;;;;7.33;5.33;;;;;31.69;29.96;102072.97;5059627;28;45203;-70
2022/07/05 11:01:12;;;;;;;;;6.00;6.00;;;;;31.65;30.26;102069.81;5056665;28;45429;-68
2022/07/05 11:03:43;;;;;;;;;5.00;5.00;;;;;31.35;30.65;102072.09;5062286;28;45401;-69
2022/07/05 11:06:19;;;;;;;;;4.00;4.00;;;;;31.26;29.88;102068.03;5059959;28;45605;-70
2022/07/05 11:08:57;;;;;;;;;5.50;5.50;;;;;32.15;29.03;102070.84;5060748;28;45557;-71
2022/07/05 11:11:33;;;;;;;;;6.00;6.00;;;;;32.64;28.31;102047.31;5058236;28;45611;-69
2022/07/05 11:14:00;;;;;;;;;4.33;4.33;;;;;31.83;28.53;102074.31;5063223;28;45345;-69
2022/07/05 11:16:27;;;;;;;;;8.00;5.00;;;;;31.77;29.61;102080.13;5057513;28;46108;-69
2022/07/05 11:19:11;;;;;;;;;5.00;5.00;;;;;31.85;28.24;102065.63;5062983;28;45309;-69
2022/07/05 11:21:59;;;;;;;;;5.00;5.00;;;;;31.07;30.34;102069.34;5056140;28;45451;-70
2022/07/05 11:24:27;;;;;;;;;6.00;5.67;;;;;31.05;30.03;102072.38;5060104;28;45557;-70
2022/07/05 11:26:57;;;;;;;;;7.00;7.00;;;;;31.39;29.47;102073.31;5054805;28;45470;-69
2022/07/05 11:29:42;;;;;;;;;5.00;5.00;;;;;32.50;29.03;102064.88;5062191;28;45325;-70
2022/07/05 11:32:14;;;;;;;;;5.00;5.00;;;;;32.93;27.07;102056.38;5060174;28;45408;-70